sensor_id;sensor_type;location;lat;lon;timestamp;P1;durP1;ratioP1;P2;durP2;ratioP2
34296;SDS011;20564;42.902;25.336;2023-11-22T00:00:17;0.68;;;0.43;;
34296;SDS011;20564;42.902;25.336;2023-11-22T00:02:44;1.17;;;0.65;;
34296;SDS011;20564;42.902;25.336;2023-11-22T00:05:11;0.40;;;0.40;;
34296;SDS011;20564;42.902;25.336;2023-11-22T00:07:39;0.38;;;0.30;;
34296;SDS011;20564;42.902;25.336;2023-11-22T00:10:06;0.65;;;0.57;;
34296;SDS011;20564;42.902;25.336;2023-11-22T00:12:35;0.80;;;0.80;;
34296;SDS011;20564;42.902;25.336;2023-11-22T00:15:05;0.00;;;0.00;;
34296;SDS011;20564;42.902;25.336;2023-11-22T00:17:33;0.15;;;0.15;;
34296;SDS011;20564;42.902;25.336;2023-11-22T00:20:00;0.17;;;0.15;;
34296;SDS011;20564;42.902;25.336;2023-11-22T00:22:32;2.15;;;0.47;;
34296;SDS011;20564;42.902;25.336;2023-11-22T00:25:03;0.85;;;0.50;;
34296;SDS011;20564;42.902;25.336;2023-11-22T00:27:30;1.00;;;0.75;;
34296;SDS011;20564;42.902;25.336;2023-11-22T00:30:01;0.45;;;0.20;;
34296;SDS011;20564;42.902;25.336;2023-11-22T00:32:28;0.15;;;0.10;;
34296;SDS011;20564;42.902;25.336;2023-11-22T00:34:56;1.33;;;0.90;;
34296;SDS011;20564;42.902;25.336;2023-11-22T00:37:24;0.63;;;0.40;;
34296;SDS011;20564;42.902;25.336;2023-11-22T00:39:51;0.57;;;0.38;;
34296;SDS011;20564;42.902;25.336;2023-11-22T00:42:18;1.13;;;0.40;;
34296;SDS011;20564;42.902;25.336;2023-11-22T00:44:47;0.65;;;0.20;;
34296;SDS011;20564;42.902;25.336;2023-11-22T00:47:14;0.00;;;0.00;;
34296;SDS011;20564;42.902;25.336;2023-11-22T00:49:43;0.28;;;0.28;;
34296;SDS011;20564;42.902;25.336;2023-11-22T00:52:10;0.25;;;0.15;;
34296;SDS011;20564;42.902;25.336;2023-11-22T00:54:37;4.97;;;1.30;;
34296;SDS011;20564;42.902;25.336;2023-11-22T00:57:04;3.03;;;0.35;;
34296;SDS011;20564;42.902;25.336;2023-11-22T00:59:33;0.32;;;0.30;;
34296;SDS011;20564;42.902;25.336;2023-11-22T01:02:00;0.70;;;0.57;;
34296;SDS011;20564;42.902;25.336;2023-11-22T01:04:31;0.52;;;0.38;;
34296;SDS011;20564;42.902;25.336;2023-11-22T01:07:00;0.00;;;0.00;;
34296;SDS011;20564;42.902;25.336;2023-11-22T01:09:28;1.70;;;0.95;;
34296;SDS011;20564;42.902;25.336;2023-11-22T01:11:55;1.02;;;0.60;;
34296;SDS011;20564;42.902;25.336;2023-11-22T01:14:22;0.35;;;0.28;;
34296;SDS011;20564;42.902;25.336;2023-11-22T01:16:49;0.20;;;0.10;;
34296;SDS011;20564;42.902;25.336;2023-11-22T01:19:21;2.65;;;0.68;;
34296;SDS011;20564;42.902;25.336;2023-11-22T01:21:50;2.53;;;1.02;;
34296;SDS011;20564;42.902;25.336;2023-11-22T01:24:18;0.28;;;0.28;;
34296;SDS011;20564;42.902;25.336;2023-11-22T01:26:45;2.40;;;0.88;;
34296;SDS011;20564;42.902;25.336;2023-11-22T01:29:15;0.17;;;0.17;;
34296;SDS011;20564;42.902;25.336;2023-11-22T01:31:42;0.65;;;0.30;;
34296;SDS011;20564;42.902;25.336;2023-11-22T01:36:39;0.00;;;0.00;;
34296;SDS011;20564;42.902;25.336;2023-11-22T01:39:13;0.05;;;0.05;;
34296;SDS011;20564;42.902;25.336;2023-11-22T01:41:40;0.85;;;0.75;;
34296;SDS011;20564;42.902;25.336;2023-11-22T01:44:10;0.35;;;0.35;;
34296;SDS011;20564;42.902;25.336;2023-11-22T01:46:37;0.52;;;0.28;;
34296;SDS011;20564;42.902;25.336;2023-11-22T01:49:05;0.28;;;0.20;;
34296;SDS011;20564;42.902;25.336;2023-11-22T01:51:32;1.67;;;0.75;;
34296;SDS011;20564;42.902;25.336;2023-11-22T01:53:59;0.45;;;0.45;;
34296;SDS011;20564;42.902;25.336;2023-11-22T01:56:27;1.35;;;0.63;;
34296;SDS011;20564;42.902;25.336;2023-11-22T01:58:56;0.28;;;0.28;;
34296;SDS011;20564;42.902;25.336;2023-11-22T02:01:26;0.38;;;0.38;;
34296;SDS011;20564;42.902;25.336;2023-11-22T02:03:53;0.45;;;0.38;;
34296;SDS011;20564;42.902;25.336;2023-11-22T02:06:21;0.38;;;0.30;;
34296;SDS011;20564;42.902;25.336;2023-11-22T02:08:48;0.80;;;0.80;;
34296;SDS011;20564;42.902;25.336;2023-11-22T02:11:19;0.00;;;0.00;;
34296;SDS011;20564;42.902;25.336;2023-11-22T02:13:51;0.30;;;0.30;;
34296;SDS011;20564;42.902;25.336;2023-11-22T02:16:19;0.30;;;0.30;;
34296;SDS011;20564;42.902;25.336;2023-11-22T02:18:49;1.67;;;0.85;;
34296;SDS011;20564;42.902;25.336;2023-11-22T02:21:16;0.55;;;0.30;;
34296;SDS011;20564;42.902;25.336;2023-11-22T02:23:44;2.67;;;0.98;;
34296;SDS011;20564;42.902;25.336;2023-11-22T02:26:14;0.13;;;0.13;;
34296;SDS011;20564;42.902;25.336;2023-11-22T02:28:45;1.88;;;0.73;;
34296;SDS011;20564;42.902;25.336;2023-11-22T02:31:12;0.90;;;0.63;;
34296;SDS011;20564;42.902;25.336;2023-11-22T02:33:39;0.00;;;0.00;;
34296;SDS011;20564;42.902;25.336;2023-11-22T02:36:06;1.03;;;0.83;;
34296;SDS011;20564;42.902;25.336;2023-11-22T02:38:34;0.35;;;0.30;;
34296;SDS011;20564;42.902;25.336;2023-11-22T02:41:04;0.98;;;0.77;;
34296;SDS011;20564;42.902;25.336;2023-11-22T02:43:32;2.05;;;0.63;;
34296;SDS011;20564;42.902;25.336;2023-11-22T02:45:59;0.57;;;0.15;;
34296;SDS011;20564;42.902;25.336;2023-11-22T02:48:25;1.90;;;1.08;;
34296;SDS011;20564;42.902;25.336;2023-11-22T02:50:55;0.20;;;0.20;;
34296;SDS011;20564;42.902;25.336;2023-11-22T02:53:22;0.95;;;0.60;;
34296;SDS011;20564;42.902;25.336;2023-11-22T02:55:49;0.88;;;0.47;;
34296;SDS011;20564;42.902;25.336;2023-11-22T02:58:16;0.47;;;0.47;;
34296;SDS011;20564;42.902;25.336;2023-11-22T03:00:43;1.45;;;0.63;;
34296;SDS011;20564;42.902;25.336;2023-11-22T03:03:11;0.20;;;0.10;;
34296;SDS011;20564;42.902;25.336;2023-11-22T03:05:39;0.75;;;0.30;;
34296;SDS011;20564;42.902;25.336;2023-11-22T03:08:09;1.52;;;0.63;;
34296;SDS011;20564;42.902;25.336;2023-11-22T03:10:37;0.40;;;0.32;;
34296;SDS011;20564;42.902;25.336;2023-11-22T03:13:04;1.27;;;0.70;;
34296;SDS011;20564;42.902;25.336;2023-11-22T03:15:32;0.52;;;0.43;;
34296;SDS011;20564;42.902;25.336;2023-11-22T03:17:59;0.20;;;0.20;;
34296;SDS011;20564;42.902;25.336;2023-11-22T03:20:26;2.30;;;1.00;;
34296;SDS011;20564;42.902;25.336;2023-11-22T03:22:54;0.28;;;0.28;;
34296;SDS011;20564;42.902;25.336;2023-11-22T03:25:21;0.35;;;0.35;;
34296;SDS011;20564;42.902;25.336;2023-11-22T03:27:48;0.70;;;0.60;;
34296;SDS011;20564;42.902;25.336;2023-11-22T03:30:15;0.20;;;0.20;;
34296;SDS011;20564;42.902;25.336;2023-11-22T03:32:43;1.98;;;1.10;;
34296;SDS011;20564;42.902;25.336;2023-11-22T03:37:41;1.08;;;0.70;;
34296;SDS011;20564;42.902;25.336;2023-11-22T03:40:09;1.33;;;1.20;;
34296;SDS011;20564;42.902;25.336;2023-11-22T03:42:36;1.17;;;0.65;;
34296;SDS011;20564;42.902;25.336;2023-11-22T03:45:05;0.80;;;0.52;;
34296;SDS011;20564;42.902;25.336;2023-11-22T03:47:33;0.93;;;0.65;;
34296;SDS011;20564;42.902;25.336;2023-11-22T03:50:00;1.17;;;0.75;;
34296;SDS011;20564;42.902;25.336;2023-11-22T03:52:27;0.63;;;0.63;;
34296;SDS011;20564;42.902;25.336;2023-11-22T03:54:54;0.45;;;0.45;;
34296;SDS011;20564;42.902;25.336;2023-11-22T03:57:21;0.30;;;0.30;;
34296;SDS011;20564;42.902;25.336;2023-11-22T03:59:48;0.43;;;0.38;;
34296;SDS011;20564;42.902;25.336;2023-11-22T04:02:15;1.00;;;0.65;;
34296;SDS011;20564;42.902;25.336;2023-11-22T04:04:42;0.03;;;0.03;;
34296;SDS011;20564;42.902;25.336;2023-11-22T04:07:09;0.77;;;0.40;;
34296;SDS011;20564;42.902;25.336;2023-11-22T04:09:36;0.60;;;0.55;;
34296;SDS011;20564;42.902;25.336;2023-11-22T04:12:04;0.52;;;0.52;;
34296;SDS011;20564;42.902;25.336;2023-11-22T04:14:32;0.30;;;0.30;;
34296;SDS011;20564;42.902;25.336;2023-11-22T04:16:59;0.43;;;0.38;;
34296;SDS011;20564;42.902;25.336;2023-11-22T04:19:26;1.50;;;0.88;;
34296;SDS011;20564;42.902;25.336;2023-11-22T04:21:54;2.85;;;1.45;;
34296;SDS011;20564;42.902;25.336;2023-11-22T04:24:21;0.50;;;0.50;;
34296;SDS011;20564;42.902;25.336;2023-11-22T04:26:48;0.40;;;0.40;;
34296;SDS011;20564;42.902;25.336;2023-11-22T04:29:15;1.17;;;0.55;;
34296;SDS011;20564;42.902;25.336;2023-11-22T04:34:19;1.67;;;0.95;;
34296;SDS011;20564;42.902;25.336;2023-11-22T04:36:50;0.45;;;0.32;;
34296;SDS011;20564;42.902;25.336;2023-11-22T04:39:16;1.50;;;0.65;;
34296;SDS011;20564;42.902;25.336;2023-11-22T04:41:44;0.68;;;0.43;;
34296;SDS011;20564;42.902;25.336;2023-11-22T04:44:11;2.43;;;0.77;;
34296;SDS011;20564;42.902;25.336;2023-11-22T04:46:38;0.55;;;0.55;;
34296;SDS011;20564;42.902;25.336;2023-11-22T04:49:05;10.63;;;1.20;;
34296;SDS011;20564;42.902;25.336;2023-11-22T04:51:34;0.75;;;0.63;;
34296;SDS011;20564;42.902;25.336;2023-11-22T04:54:01;1.98;;;1.10;;
34296;SDS011;20564;42.902;25.336;2023-11-22T04:56:28;0.20;;;0.20;;
34296;SDS011;20564;42.902;25.336;2023-11-22T04:58:55;2.37;;;0.73;;
34296;SDS011;20564;42.902;25.336;2023-11-22T05:01:23;0.40;;;0.30;;
34296;SDS011;20564;42.902;25.336;2023-11-22T05:03:52;0.63;;;0.40;;
34296;SDS011;20564;42.902;25.336;2023-11-22T05:06:19;1.20;;;0.67;;
34296;SDS011;20564;42.902;25.336;2023-11-22T05:08:46;0.08;;;0.08;;
34296;SDS011;20564;42.902;25.336;2023-11-22T05:11:13;0.20;;;0.20;;
34296;SDS011;20564;42.902;25.336;2023-11-22T05:13:42;0.22;;;0.22;;
34296;SDS011;20564;42.902;25.336;2023-11-22T05:16:11;1.55;;;0.90;;
34296;SDS011;20564;42.902;25.336;2023-11-22T05:18:39;0.10;;;0.10;;
34296;SDS011;20564;42.902;25.336;2023-11-22T05:21:06;1.98;;;0.93;;
34296;SDS011;20564;42.902;25.336;2023-11-22T05:23:33;1.67;;;1.20;;
34296;SDS011;20564;42.902;25.336;2023-11-22T05:26:00;0.43;;;0.43;;
34296;SDS011;20564;42.902;25.336;2023-11-22T05:28:27;0.88;;;0.73;;
34296;SDS011;20564;42.902;25.336;2023-11-22T05:30:54;1.27;;;0.73;;
34296;SDS011;20564;42.902;25.336;2023-11-22T05:33:21;1.60;;;0.45;;
34296;SDS011;20564;42.902;25.336;2023-11-22T05:35:48;0.70;;;0.65;;
34296;SDS011;20564;42.902;25.336;2023-11-22T05:38:15;3.00;;;0.93;;
34296;SDS011;20564;42.902;25.336;2023-11-22T05:40:43;1.08;;;0.57;;
34296;SDS011;20564;42.902;25.336;2023-11-22T05:43:10;1.15;;;0.60;;
34296;SDS011;20564;42.902;25.336;2023-11-22T05:45:38;3.83;;;1.08;;
34296;SDS011;20564;42.902;25.336;2023-11-22T05:48:05;2.63;;;1.97;;
34296;SDS011;20564;42.902;25.336;2023-11-22T05:50:32;4.13;;;2.13;;
34296;SDS011;20564;42.902;25.336;2023-11-22T05:52:59;3.07;;;1.80;;
34296;SDS011;20564;42.902;25.336;2023-11-22T05:55:26;4.40;;;1.73;;
34296;SDS011;20564;42.902;25.336;2023-11-22T05:57:54;4.95;;;1.60;;
34296;SDS011;20564;42.902;25.336;2023-11-22T06:00:21;1.08;;;0.75;;
34296;SDS011;20564;42.902;25.336;2023-11-22T06:02:48;1.42;;;0.88;;
34296;SDS011;20564;42.902;25.336;2023-11-22T06:05:15;2.72;;;1.05;;
34296;SDS011;20564;42.902;25.336;2023-11-22T06:07:42;0.85;;;0.63;;
34296;SDS011;20564;42.902;25.336;2023-11-22T06:10:09;2.30;;;0.90;;
34296;SDS011;20564;42.902;25.336;2023-11-22T06:12:36;0.68;;;0.50;;
34296;SDS011;20564;42.902;25.336;2023-11-22T06:15:03;1.20;;;0.77;;
34296;SDS011;20564;42.902;25.336;2023-11-22T06:17:31;0.60;;;0.60;;
34296;SDS011;20564;42.902;25.336;2023-11-22T06:19:58;2.17;;;1.48;;
34296;SDS011;20564;42.902;25.336;2023-11-22T06:22:25;2.00;;;0.75;;
34296;SDS011;20564;42.902;25.336;2023-11-22T06:24:52;0.85;;;0.63;;
34296;SDS011;20564;42.902;25.336;2023-11-22T06:27:22;0.47;;;0.47;;
34296;SDS011;20564;42.902;25.336;2023-11-22T06:29:48;0.52;;;0.52;;
34296;SDS011;20564;42.902;25.336;2023-11-22T06:32:15;2.35;;;1.33;;
34296;SDS011;20564;42.902;25.336;2023-11-22T06:34:45;0.45;;;0.38;;
34296;SDS011;20564;42.902;25.336;2023-11-22T06:37:13;1.52;;;0.90;;
34296;SDS011;20564;42.902;25.336;2023-11-22T06:39:39;4.03;;;2.03;;
34296;SDS011;20564;42.902;25.336;2023-11-22T06:42:07;2.90;;;1.65;;
34296;SDS011;20564;42.902;25.336;2023-11-22T06:44:35;13.05;;;1.45;;
34296;SDS011;20564;42.902;25.336;2023-11-22T06:47:02;1.40;;;1.02;;
34296;SDS011;20564;42.902;25.336;2023-11-22T06:49:28;2.20;;;1.88;;
34296;SDS011;20564;42.902;25.336;2023-11-22T06:51:55;1.60;;;1.00;;
34296;SDS011;20564;42.902;25.336;2023-11-22T06:54:22;2.77;;;2.00;;
34296;SDS011;20564;42.902;25.336;2023-11-22T06:56:49;6.20;;;2.45;;
34296;SDS011;20564;42.902;25.336;2023-11-22T06:59:20;3.30;;;2.13;;
34296;SDS011;20564;42.902;25.336;2023-11-22T07:01:47;8.77;;;3.42;;
34296;SDS011;20564;42.902;25.336;2023-11-22T07:04:13;11.90;;;5.50;;
34296;SDS011;20564;42.902;25.336;2023-11-22T07:06:41;7.80;;;3.93;;
34296;SDS011;20564;42.902;25.336;2023-11-22T07:09:09;13.45;;;5.25;;
34296;SDS011;20564;42.902;25.336;2023-11-22T07:11:36;6.38;;;4.15;;
34296;SDS011;20564;42.902;25.336;2023-11-22T07:14:03;7.55;;;3.97;;
34296;SDS011;20564;42.902;25.336;2023-11-22T07:16:31;6.15;;;3.22;;
34296;SDS011;20564;42.902;25.336;2023-11-22T07:19:00;8.30;;;5.03;;
34296;SDS011;20564;42.902;25.336;2023-11-22T07:21:33;6.75;;;3.97;;
34296;SDS011;20564;42.902;25.336;2023-11-22T07:24:04;3.33;;;1.48;;
34296;SDS011;20564;42.902;25.336;2023-11-22T07:26:33;6.38;;;1.80;;
34296;SDS011;20564;42.902;25.336;2023-11-22T07:29:00;2.50;;;1.60;;
34296;SDS011;20564;42.902;25.336;2023-11-22T07:31:27;1.27;;;1.10;;
34296;SDS011;20564;42.902;25.336;2023-11-22T07:33:55;1.95;;;1.20;;
34296;SDS011;20564;42.902;25.336;2023-11-22T07:36:22;3.75;;;3.22;;
34296;SDS011;20564;42.902;25.336;2023-11-22T07:38:49;4.82;;;2.53;;
34296;SDS011;20564;42.902;25.336;2023-11-22T07:41:16;5.82;;;3.97;;
34296;SDS011;20564;42.902;25.336;2023-11-22T07:43:43;9.70;;;5.03;;
34296;SDS011;20564;42.902;25.336;2023-11-22T07:48:41;2.45;;;1.92;;
34296;SDS011;20564;42.902;25.336;2023-11-22T07:51:09;4.78;;;2.03;;
34296;SDS011;20564;42.902;25.336;2023-11-22T07:53:36;2.13;;;1.38;;
34296;SDS011;20564;42.902;25.336;2023-11-22T07:56:06;1.65;;;1.27;;
34296;SDS011;20564;42.902;25.336;2023-11-22T07:58:34;1.98;;;1.70;;
34296;SDS011;20564;42.902;25.336;2023-11-22T08:01:01;4.75;;;2.45;;
34296;SDS011;20564;42.902;25.336;2023-11-22T08:03:32;1.13;;;1.02;;
34296;SDS011;20564;42.902;25.336;2023-11-22T08:06:01;1.55;;;1.08;;
34296;SDS011;20564;42.902;25.336;2023-11-22T08:08:32;1.25;;;1.05;;
34296;SDS011;20564;42.902;25.336;2023-11-22T08:11:05;3.13;;;1.65;;
34296;SDS011;20564;42.902;25.336;2023-11-22T08:13:41;2.17;;;1.63;;
34296;SDS011;20564;42.902;25.336;2023-11-22T08:16:14;1.42;;;0.95;;
34296;SDS011;20564;42.902;25.336;2023-11-22T08:18:41;2.17;;;1.45;;
34296;SDS011;20564;42.902;25.336;2023-11-22T08:21:10;3.15;;;1.02;;
34296;SDS011;20564;42.902;25.336;2023-11-22T08:23:37;1.08;;;0.50;;
34296;SDS011;20564;42.902;25.336;2023-11-22T08:26:04;2.72;;;1.25;;
34296;SDS011;20564;42.902;25.336;2023-11-22T08:28:32;2.30;;;1.40;;
34296;SDS011;20564;42.902;25.336;2023-11-22T08:31:00;2.42;;;1.67;;
34296;SDS011;20564;42.902;25.336;2023-11-22T08:33:27;0.82;;;0.75;;
34296;SDS011;20564;42.902;25.336;2023-11-22T08:35:54;3.90;;;1.88;;
34296;SDS011;20564;42.902;25.336;2023-11-22T08:38:25;4.78;;;3.08;;
34296;SDS011;20564;42.902;25.336;2023-11-22T08:40:54;0.60;;;0.25;;
34296;SDS011;20564;42.902;25.336;2023-11-22T08:43:21;3.22;;;1.40;;
34296;SDS011;20564;42.902;25.336;2023-11-22T08:45:49;1.30;;;0.98;;
34296;SDS011;20564;42.902;25.336;2023-11-22T08:48:26;1.65;;;1.35;;
34296;SDS011;20564;42.902;25.336;2023-11-22T08:50:53;5.82;;;3.67;;
34296;SDS011;20564;42.902;25.336;2023-11-22T08:53:22;4.68;;;2.53;;
34296;SDS011;20564;42.902;25.336;2023-11-22T08:55:49;3.80;;;2.22;;
34296;SDS011;20564;42.902;25.336;2023-11-22T08:58:17;2.03;;;1.05;;
34296;SDS011;20564;42.902;25.336;2023-11-22T09:00:44;5.20;;;1.90;;
34296;SDS011;20564;42.902;25.336;2023-11-22T09:03:11;1.75;;;1.42;;
34296;SDS011;20564;42.902;25.336;2023-11-22T09:05:39;8.27;;;2.75;;
34296;SDS011;20564;42.902;25.336;2023-11-22T09:08:07;1.65;;;1.45;;
34296;SDS011;20564;42.902;25.336;2023-11-22T09:10:50;5.38;;;3.15;;
34296;SDS011;20564;42.902;25.336;2023-11-22T09:13:17;3.97;;;2.55;;
34296;SDS011;20564;42.902;25.336;2023-11-22T09:15:45;17.35;;;2.55;;
34296;SDS011;20564;42.902;25.336;2023-11-22T09:18:12;5.80;;;2.23;;
34296;SDS011;20564;42.902;25.336;2023-11-22T09:20:41;2.30;;;1.42;;
34296;SDS011;20564;42.902;25.336;2023-11-22T09:23:10;1.30;;;1.05;;
34296;SDS011;20564;42.902;25.336;2023-11-22T09:25:38;0.70;;;0.63;;
34296;SDS011;20564;42.902;25.336;2023-11-22T09:28:05;3.05;;;1.52;;
34296;SDS011;20564;42.902;25.336;2023-11-22T09:30:34;3.08;;;1.73;;
34296;SDS011;20564;42.902;25.336;2023-11-22T09:35:30;7.20;;;3.30;;
34296;SDS011;20564;42.902;25.336;2023-11-22T09:37:58;2.90;;;1.65;;
34296;SDS011;20564;42.902;25.336;2023-11-22T09:40:26;4.45;;;2.35;;
34296;SDS011;20564;42.902;25.336;2023-11-22T09:42:55;5.43;;;4.43;;
34296;SDS011;20564;42.902;25.336;2023-11-22T09:45:24;2.90;;;2.17;;
34296;SDS011;20564;42.902;25.336;2023-11-22T09:47:52;2.92;;;2.10;;
34296;SDS011;20564;42.902;25.336;2023-11-22T09:50:21;6.18;;;3.80;;
34296;SDS011;20564;42.902;25.336;2023-11-22T09:52:57;6.22;;;1.83;;
34296;SDS011;20564;42.902;25.336;2023-11-22T09:55:28;3.15;;;1.88;;
34296;SDS011;20564;42.902;25.336;2023-11-22T10:00:28;2.33;;;1.52;;
34296;SDS011;20564;42.902;25.336;2023-11-22T10:02:58;4.20;;;2.10;;
34296;SDS011;20564;42.902;25.336;2023-11-22T10:05:26;6.10;;;2.63;;
34296;SDS011;20564;42.902;25.336;2023-11-22T10:07:55;4.80;;;2.15;;
34296;SDS011;20564;42.902;25.336;2023-11-22T10:10:22;1.88;;;1.48;;
34296;SDS011;20564;42.902;25.336;2023-11-22T10:12:54;3.83;;;2.20;;
34296;SDS011;20564;42.902;25.336;2023-11-22T10:15:22;1.67;;;1.00;;
34296;SDS011;20564;42.902;25.336;2023-11-22T10:17:56;12.90;;;7.55;;
34296;SDS011;20564;42.902;25.336;2023-11-22T10:20:40;12.65;;;6.75;;
34296;SDS011;20564;42.902;25.336;2023-11-22T10:23:08;6.85;;;4.32;;
34296;SDS011;20564;42.902;25.336;2023-11-22T10:25:37;3.67;;;2.08;;
34296;SDS011;20564;42.902;25.336;2023-11-22T10:28:19;2.05;;;1.58;;
34296;SDS011;20564;42.902;25.336;2023-11-22T10:30:49;3.95;;;2.50;;
34296;SDS011;20564;42.902;25.336;2023-11-22T10:33:18;5.93;;;3.13;;
34296;SDS011;20564;42.902;25.336;2023-11-22T10:35:50;16.25;;;2.33;;
34296;SDS011;20564;42.902;25.336;2023-11-22T10:38:18;3.42;;;1.65;;
34296;SDS011;20564;42.902;25.336;2023-11-22T10:40:46;2.65;;;1.45;;
34296;SDS011;20564;42.902;25.336;2023-11-22T10:43:15;8.90;;;5.07;;
34296;SDS011;20564;42.902;25.336;2023-11-22T10:45:52;6.70;;;2.53;;
34296;SDS011;20564;42.902;25.336;2023-11-22T10:48:22;2.22;;;1.67;;
34296;SDS011;20564;42.902;25.336;2023-11-22T10:50:49;5.50;;;1.83;;
34296;SDS011;20564;42.902;25.336;2023-11-22T10:53:19;3.50;;;2.58;;
34296;SDS011;20564;42.902;25.336;2023-11-22T10:55:53;7.93;;;2.30;;
34296;SDS011;20564;42.902;25.336;2023-11-22T10:58:25;3.17;;;1.98;;
34296;SDS011;20564;42.902;25.336;2023-11-22T11:00:54;4.55;;;2.75;;
34296;SDS011;20564;42.902;25.336;2023-11-22T11:03:23;5.57;;;2.92;;
34296;SDS011;20564;42.902;25.336;2023-11-22T11:05:58;2.38;;;1.95;;
34296;SDS011;20564;42.902;25.336;2023-11-22T11:08:25;2.60;;;1.98;;
34296;SDS011;20564;42.902;25.336;2023-11-22T11:10:55;3.35;;;2.45;;
34296;SDS011;20564;42.902;25.336;2023-11-22T11:13:22;2.70;;;1.83;;
34296;SDS011;20564;42.902;25.336;2023-11-22T11:15:55;1.75;;;1.10;;
34296;SDS011;20564;42.902;25.336;2023-11-22T11:18:24;4.32;;;1.70;;
34296;SDS011;20564;42.902;25.336;2023-11-22T11:20:52;2.50;;;1.55;;
34296;SDS011;20564;42.902;25.336;2023-11-22T11:23:20;6.70;;;1.77;;
34296;SDS011;20564;42.902;25.336;2023-11-22T11:25:51;3.70;;;1.70;;
34296;SDS011;20564;42.902;25.336;2023-11-22T11:28:20;3.72;;;2.28;;
34296;SDS011;20564;42.902;25.336;2023-11-22T11:30:48;2.30;;;1.67;;
34296;SDS011;20564;42.902;25.336;2023-11-22T11:33:27;1.95;;;1.38;;
34296;SDS011;20564;42.902;25.336;2023-11-22T11:36:00;3.10;;;2.05;;
34296;SDS011;20564;42.902;25.336;2023-11-22T11:38:36;3.38;;;2.33;;
34296;SDS011;20564;42.902;25.336;2023-11-22T11:41:06;4.22;;;2.33;;
34296;SDS011;20564;42.902;25.336;2023-11-22T11:43:40;1.45;;;0.75;;
34296;SDS011;20564;42.902;25.336;2023-11-22T11:46:15;1.75;;;1.08;;
34296;SDS011;20564;42.902;25.336;2023-11-22T11:48:49;2.65;;;1.88;;
34296;SDS011;20564;42.902;25.336;2023-11-22T11:51:21;2.67;;;1.50;;
34296;SDS011;20564;42.902;25.336;2023-11-22T11:53:49;2.97;;;0.93;;
34296;SDS011;20564;42.902;25.336;2023-11-22T11:56:17;4.00;;;2.33;;
34296;SDS011;20564;42.902;25.336;2023-11-22T11:58:45;8.15;;;3.50;;
34296;SDS011;20564;42.902;25.336;2023-11-22T12:01:14;5.80;;;3.75;;
34296;SDS011;20564;42.902;25.336;2023-11-22T12:03:48;5.93;;;2.83;;
34296;SDS011;20564;42.902;25.336;2023-11-22T12:06:18;0.93;;;0.60;;
34296;SDS011;20564;42.902;25.336;2023-11-22T12:08:47;3.05;;;1.65;;
34296;SDS011;20564;42.902;25.336;2023-11-22T12:11:14;1.83;;;1.48;;
34296;SDS011;20564;42.902;25.336;2023-11-22T12:13:42;1.67;;;1.15;;
34296;SDS011;20564;42.902;25.336;2023-11-22T12:16:16;2.30;;;1.08;;
34296;SDS011;20564;42.902;25.336;2023-11-22T12:18:46;4.93;;;1.60;;
34296;SDS011;20564;42.902;25.336;2023-11-22T12:21:18;1.73;;;1.42;;
34296;SDS011;20564;42.902;25.336;2023-11-22T12:23:46;2.92;;;2.00;;
34296;SDS011;20564;42.902;25.336;2023-11-22T12:26:15;1.90;;;1.15;;
34296;SDS011;20564;42.902;25.336;2023-11-22T12:28:45;2.50;;;1.33;;
34296;SDS011;20564;42.902;25.336;2023-11-22T12:31:28;0.20;;;0.20;;
34296;SDS011;20564;42.902;25.336;2023-11-22T12:34:02;2.03;;;1.65;;
34296;SDS011;20564;42.902;25.336;2023-11-22T12:36:29;2.85;;;1.65;;
34296;SDS011;20564;42.902;25.336;2023-11-22T12:38:56;3.05;;;1.08;;
34296;SDS011;20564;42.902;25.336;2023-11-22T12:41:26;1.88;;;1.05;;
34296;SDS011;20564;42.902;25.336;2023-11-22T12:44:05;2.30;;;1.77;;
34296;SDS011;20564;42.902;25.336;2023-11-22T12:46:46;4.63;;;2.72;;
34296;SDS011;20564;42.902;25.336;2023-11-22T12:49:27;2.03;;;0.88;;
34296;SDS011;20564;42.902;25.336;2023-11-22T12:51:55;4.05;;;1.63;;
34296;SDS011;20564;42.902;25.336;2023-11-22T12:54:26;0.93;;;0.63;;
34296;SDS011;20564;42.902;25.336;2023-11-22T12:56:53;4.95;;;1.45;;
34296;SDS011;20564;42.902;25.336;2023-11-22T12:59:25;2.20;;;1.33;;
34296;SDS011;20564;42.902;25.336;2023-11-22T13:01:57;7.53;;;3.08;;
34296;SDS011;20564;42.902;25.336;2023-11-22T13:04:28;9.93;;;2.40;;
34296;SDS011;20564;42.902;25.336;2023-11-22T13:06:56;43.38;;;3.95;;
34296;SDS011;20564;42.902;25.336;2023-11-22T13:09:26;5.45;;;2.78;;
34296;SDS011;20564;42.902;25.336;2023-11-22T13:11:54;8.82;;;2.25;;
34296;SDS011;20564;42.902;25.336;2023-11-22T13:14:21;12.55;;;3.97;;
34296;SDS011;20564;42.902;25.336;2023-11-22T13:16:50;4.88;;;2.75;;
34296;SDS011;20564;42.902;25.336;2023-11-22T13:19:17;6.37;;;2.03;;
34296;SDS011;20564;42.902;25.336;2023-11-22T13:21:43;1.23;;;1.00;;
34296;SDS011;20564;42.902;25.336;2023-11-22T13:24:11;4.28;;;1.83;;
34296;SDS011;20564;42.902;25.336;2023-11-22T13:26:40;1.50;;;0.98;;
34296;SDS011;20564;42.902;25.336;2023-11-22T13:29:07;3.75;;;1.80;;
34296;SDS011;20564;42.902;25.336;2023-11-22T13:31:35;1.33;;;1.23;;
34296;SDS011;20564;42.902;25.336;2023-11-22T13:34:02;0.80;;;0.50;;
34296;SDS011;20564;42.902;25.336;2023-11-22T13:36:28;4.30;;;1.95;;
34296;SDS011;20564;42.902;25.336;2023-11-22T13:38:56;1.63;;;1.38;;
34296;SDS011;20564;42.902;25.336;2023-11-22T13:41:23;2.57;;;1.83;;
34296;SDS011;20564;42.902;25.336;2023-11-22T13:43:52;1.63;;;1.10;;
34296;SDS011;20564;42.902;25.336;2023-11-22T13:46:19;1.02;;;0.98;;
34296;SDS011;20564;42.902;25.336;2023-11-22T13:48:47;3.05;;;2.20;;
34296;SDS011;20564;42.902;25.336;2023-11-22T13:51:14;5.72;;;2.92;;
34296;SDS011;20564;42.902;25.336;2023-11-22T13:53:41;6.40;;;2.78;;
34296;SDS011;20564;42.902;25.336;2023-11-22T13:56:11;5.13;;;2.00;;
34296;SDS011;20564;42.902;25.336;2023-11-22T13:58:41;4.22;;;2.22;;
34296;SDS011;20564;42.902;25.336;2023-11-22T14:01:08;4.55;;;2.28;;
34296;SDS011;20564;42.902;25.336;2023-11-22T14:03:40;2.03;;;1.45;;
34296;SDS011;20564;42.902;25.336;2023-11-22T14:06:07;4.30;;;1.80;;
34296;SDS011;20564;42.902;25.336;2023-11-22T14:08:36;4.32;;;2.28;;
34296;SDS011;20564;42.902;25.336;2023-11-22T14:11:03;1.33;;;1.05;;
34296;SDS011;20564;42.902;25.336;2023-11-22T14:13:30;1.90;;;1.35;;
34296;SDS011;20564;42.902;25.336;2023-11-22T14:15:58;1.48;;;1.00;;
34296;SDS011;20564;42.902;25.336;2023-11-22T14:18:25;3.95;;;1.73;;
34296;SDS011;20564;42.902;25.336;2023-11-22T14:20:52;3.33;;;1.75;;
34296;SDS011;20564;42.902;25.336;2023-11-22T14:23:20;5.40;;;1.60;;
34296;SDS011;20564;42.902;25.336;2023-11-22T14:25:47;2.17;;;1.00;;
34296;SDS011;20564;42.902;25.336;2023-11-22T14:28:14;4.10;;;1.35;;
34296;SDS011;20564;42.902;25.336;2023-11-22T14:30:41;1.80;;;1.00;;
34296;SDS011;20564;42.902;25.336;2023-11-22T14:33:09;6.72;;;1.20;;
34296;SDS011;20564;42.902;25.336;2023-11-22T14:35:36;2.72;;;1.60;;
34296;SDS011;20564;42.902;25.336;2023-11-22T14:38:06;1.85;;;0.98;;
34296;SDS011;20564;42.902;25.336;2023-11-22T14:40:33;1.63;;;1.33;;
34296;SDS011;20564;42.902;25.336;2023-11-22T14:43:04;5.85;;;2.17;;
34296;SDS011;20564;42.902;25.336;2023-11-22T14:45:34;4.22;;;2.33;;
34296;SDS011;20564;42.902;25.336;2023-11-22T14:48:01;2.53;;;1.48;;
34296;SDS011;20564;42.902;25.336;2023-11-22T14:50:28;3.22;;;1.60;;
34296;SDS011;20564;42.902;25.336;2023-11-22T14:52:57;4.28;;;2.35;;
34296;SDS011;20564;42.902;25.336;2023-11-22T14:55:24;2.05;;;1.60;;